sensor_id;sensor_type;location;lat;lon;timestamp;P1;durP1;ratioP1;P2;durP2;ratioP2
51985;SDS011;38002;53.296;6.600;2023-10-08T00:00:55;0.32;;;0.20;;
51985;SDS011;38002;53.296;6.600;2023-10-08T00:05:56;1.23;;;0.33;;
51985;SDS011;38002;53.296;6.600;2023-10-08T00:10:56;1.10;;;0.60;;
51985;SDS011;38002;53.296;6.600;2023-10-08T00:15:57;1.40;;;0.30;;
51985;SDS011;38002;53.296;6.600;2023-10-08T00:20:57;1.90;;;0.30;;
51985;SDS011;38002;53.296;6.600;2023-10-08T00:26:15;1.55;;;0.40;;
51985;SDS011;38002;53.296;6.600;2023-10-08T00:31:18;0.25;;;0.20;;
51985;SDS011;38002;53.296;6.600;2023-10-08T00:36:19;0.23;;;0.23;;
51985;SDS011;38002;53.296;6.600;2023-10-08T00:41:20;0.67;;;0.23;;
51985;SDS011;38002;53.296;6.600;2023-10-08T00:46:28;0.45;;;0.20;;
51985;SDS011;38002;53.296;6.600;2023-10-08T00:51:52;0.57;;;0.40;;
51985;SDS011;38002;53.296;6.600;2023-10-08T00:57:09;2.05;;;0.50;;
51985;SDS011;38002;53.296;6.600;2023-10-08T01:07:15;2.10;;;0.50;;
51985;SDS011;38002;53.296;6.600;2023-10-08T01:17:30;3.38;;;0.65;;
51985;SDS011;38002;53.296;6.600;2023-10-08T01:22:32;3.47;;;0.55;;
51985;SDS011;38002;53.296;6.600;2023-10-08T01:27:33;0.37;;;0.30;;
51985;SDS011;38002;53.296;6.600;2023-10-08T01:32:37;0.50;;;0.30;;
51985;SDS011;38002;53.296;6.600;2023-10-08T01:37:38;1.77;;;0.53;;
51985;SDS011;38002;53.296;6.600;2023-10-08T01:42:40;4.38;;;0.80;;
51985;SDS011;38002;53.296;6.600;2023-10-08T01:47:41;1.73;;;0.57;;
51985;SDS011;38002;53.296;6.600;2023-10-08T01:52:41;1.53;;;0.70;;
51985;SDS011;38002;53.296;6.600;2023-10-08T01:57:42;1.80;;;0.50;;
51985;SDS011;38002;53.296;6.600;2023-10-08T02:02:43;2.58;;;0.60;;
51985;SDS011;38002;53.296;6.600;2023-10-08T02:07:43;2.83;;;0.70;;
51985;SDS011;38002;53.296;6.600;2023-10-08T02:12:44;5.03;;;0.80;;
51985;SDS011;38002;53.296;6.600;2023-10-08T02:17:45;5.57;;;0.70;;
51985;SDS011;38002;53.296;6.600;2023-10-08T02:22:46;2.97;;;0.83;;
51985;SDS011;38002;53.296;6.600;2023-10-08T02:27:46;3.13;;;0.87;;
51985;SDS011;38002;53.296;6.600;2023-10-08T02:37:49;2.20;;;0.60;;
51985;SDS011;38002;53.296;6.600;2023-10-08T02:42:50;2.53;;;0.90;;
51985;SDS011;38002;53.296;6.600;2023-10-08T02:47:50;1.70;;;0.83;;
51985;SDS011;38002;53.296;6.600;2023-10-08T02:52:52;4.72;;;0.90;;
51985;SDS011;38002;53.296;6.600;2023-10-08T02:57:54;2.90;;;0.63;;
51985;SDS011;38002;53.296;6.600;2023-10-08T03:02:56;2.80;;;0.63;;
51985;SDS011;38002;53.296;6.600;2023-10-08T03:12:58;2.35;;;0.65;;
51985;SDS011;38002;53.296;6.600;2023-10-08T03:18:04;2.17;;;0.80;;
51985;SDS011;38002;53.296;6.600;2023-10-08T03:23:15;1.13;;;0.60;;
51985;SDS011;38002;53.296;6.600;2023-10-08T03:28:33;3.80;;;0.77;;
51985;SDS011;38002;53.296;6.600;2023-10-08T03:33:35;0.88;;;0.63;;
51985;SDS011;38002;53.296;6.600;2023-10-08T03:38:37;1.13;;;0.65;;
51985;SDS011;38002;53.296;6.600;2023-10-08T03:43:53;3.80;;;0.82;;
51985;SDS011;38002;53.296;6.600;2023-10-08T03:48:56;4.72;;;1.10;;
51985;SDS011;38002;53.296;6.600;2023-10-08T03:53:57;6.07;;;0.80;;
51985;SDS011;38002;53.296;6.600;2023-10-08T03:59:15;3.65;;;1.00;;
51985;SDS011;38002;53.296;6.600;2023-10-08T04:04:42;4.65;;;1.27;;
51985;SDS011;38002;53.296;6.600;2023-10-08T04:09:57;3.80;;;1.00;;
51985;SDS011;38002;53.296;6.600;2023-10-08T04:15:10;4.05;;;2.17;;
51985;SDS011;38002;53.296;6.600;2023-10-08T04:20:13;6.45;;;0.98;;
51985;SDS011;38002;53.296;6.600;2023-10-08T04:25:33;3.80;;;0.90;;
51985;SDS011;38002;53.296;6.600;2023-10-08T04:30:33;2.13;;;1.27;;
51985;SDS011;38002;53.296;6.600;2023-10-08T04:35:36;2.42;;;0.93;;
51985;SDS011;38002;53.296;6.600;2023-10-08T04:40:37;6.75;;;0.93;;
51985;SDS011;38002;53.296;6.600;2023-10-08T04:46:05;4.47;;;1.10;;
51985;SDS011;38002;53.296;6.600;2023-10-08T04:51:26;3.42;;;0.80;;
51985;SDS011;38002;53.296;6.600;2023-10-08T04:56:34;5.05;;;1.33;;
51985;SDS011;38002;53.296;6.600;2023-10-08T05:01:34;3.40;;;0.93;;
51985;SDS011;38002;53.296;6.600;2023-10-08T05:06:47;6.40;;;1.30;;
51985;SDS011;38002;53.296;6.600;2023-10-08T05:11:49;4.37;;;0.97;;
51985;SDS011;38002;53.296;6.600;2023-10-08T05:16:51;5.68;;;1.30;;
51985;SDS011;38002;53.296;6.600;2023-10-08T05:22:10;4.90;;;0.90;;
51985;SDS011;38002;53.296;6.600;2023-10-08T05:27:18;7.05;;;1.05;;
51985;SDS011;38002;53.296;6.600;2023-10-08T05:32:37;2.78;;;1.10;;
51985;SDS011;38002;53.296;6.600;2023-10-08T05:37:38;4.35;;;1.88;;
51985;SDS011;38002;53.296;6.600;2023-10-08T05:42:42;4.43;;;0.90;;
51985;SDS011;38002;53.296;6.600;2023-10-08T05:48:01;6.22;;;1.02;;
51985;SDS011;38002;53.296;6.600;2023-10-08T05:53:27;4.35;;;0.80;;
51985;SDS011;38002;53.296;6.600;2023-10-08T05:58:43;7.28;;;1.13;;
51985;SDS011;38002;53.296;6.600;2023-10-08T06:04:00;2.17;;;0.80;;
51985;SDS011;38002;53.296;6.600;2023-10-08T06:09:03;4.88;;;0.93;;
51985;SDS011;38002;53.296;6.600;2023-10-08T06:14:21;5.70;;;1.20;;
51985;SDS011;38002;53.296;6.600;2023-10-08T06:19:42;7.93;;;1.33;;
51985;SDS011;38002;53.296;6.600;2023-10-08T06:24:43;2.50;;;0.83;;
51985;SDS011;38002;53.296;6.600;2023-10-08T06:29:43;4.80;;;0.90;;
51985;SDS011;38002;53.296;6.600;2023-10-08T06:34:44;4.97;;;1.10;;
51985;SDS011;38002;53.296;6.600;2023-10-08T06:39:45;3.43;;;1.03;;
51985;SDS011;38002;53.296;6.600;2023-10-08T06:44:48;4.00;;;0.85;;
51985;SDS011;38002;53.296;6.600;2023-10-08T06:49:49;5.27;;;0.90;;
51985;SDS011;38002;53.296;6.600;2023-10-08T06:54:51;6.95;;;1.10;;
51985;SDS011;38002;53.296;6.600;2023-10-08T06:59:53;5.93;;;0.98;;
51985;SDS011;38002;53.296;6.600;2023-10-08T07:04:53;3.57;;;0.90;;
51985;SDS011;38002;53.296;6.600;2023-10-08T07:09:54;1.27;;;0.70;;
51985;SDS011;38002;53.296;6.600;2023-10-08T07:14:57;7.72;;;1.15;;
51985;SDS011;38002;53.296;6.600;2023-10-08T07:19:58;2.92;;;0.85;;
51985;SDS011;38002;53.296;6.600;2023-10-08T07:24:59;4.07;;;1.23;;
51985;SDS011;38002;53.296;6.600;2023-10-08T07:29:59;7.33;;;1.20;;
51985;SDS011;38002;53.296;6.600;2023-10-08T07:35:02;3.60;;;0.90;;
51985;SDS011;38002;53.296;6.600;2023-10-08T07:40:22;2.95;;;0.80;;
51985;SDS011;38002;53.296;6.600;2023-10-08T07:45:27;3.92;;;1.08;;
51985;SDS011;38002;53.296;6.600;2023-10-08T07:50:28;6.23;;;0.90;;
51985;SDS011;38002;53.296;6.600;2023-10-08T07:55:29;5.67;;;1.00;;
51985;SDS011;38002;53.296;6.600;2023-10-08T08:00:34;2.55;;;1.10;;
51985;SDS011;38002;53.296;6.600;2023-10-08T08:05:38;7.32;;;1.20;;
51985;SDS011;38002;53.296;6.600;2023-10-08T08:10:40;4.57;;;1.30;;
51985;SDS011;38002;53.296;6.600;2023-10-08T08:15:43;8.50;;;1.17;;
51985;SDS011;38002;53.296;6.600;2023-10-08T08:20:51;4.82;;;1.10;;
51985;SDS011;38002;53.296;6.600;2023-10-08T08:25:51;9.10;;;2.37;;
51985;SDS011;38002;53.296;6.600;2023-10-08T08:31:11;4.82;;;0.98;;
51985;SDS011;38002;53.296;6.600;2023-10-08T08:36:14;6.75;;;1.58;;
51985;SDS011;38002;53.296;6.600;2023-10-08T08:41:15;4.97;;;1.13;;
51985;SDS011;38002;53.296;6.600;2023-10-08T08:46:45;5.50;;;1.20;;
51985;SDS011;38002;53.296;6.600;2023-10-08T08:51:45;4.85;;;1.05;;
51985;SDS011;38002;53.296;6.600;2023-10-08T08:56:51;3.58;;;0.85;;
51985;SDS011;38002;53.296;6.600;2023-10-08T09:06:54;9.70;;;1.10;;
51985;SDS011;38002;53.296;6.600;2023-10-08T09:11:55;6.13;;;1.38;;
51985;SDS011;38002;53.296;6.600;2023-10-08T09:16:58;3.70;;;0.80;;
51985;SDS011;38002;53.296;6.600;2023-10-08T09:22:01;4.18;;;0.88;;
51985;SDS011;38002;53.296;6.600;2023-10-08T09:27:06;8.20;;;1.60;;
51985;SDS011;38002;53.296;6.600;2023-10-08T09:32:08;3.28;;;0.93;;
51985;SDS011;38002;53.296;6.600;2023-10-08T09:37:10;5.55;;;1.13;;
51985;SDS011;38002;53.296;6.600;2023-10-08T09:47:12;10.32;;;1.35;;
51985;SDS011;38002;53.296;6.600;2023-10-08T09:52:22;5.07;;;1.00;;
51985;SDS011;38002;53.296;6.600;2023-10-08T09:57:29;3.63;;;0.80;;
51985;SDS011;38002;53.296;6.600;2023-10-08T10:02:30;7.50;;;1.17;;
51985;SDS011;38002;53.296;6.600;2023-10-08T10:07:32;3.03;;;1.15;;
51985;SDS011;38002;53.296;6.600;2023-10-08T10:12:32;7.17;;;0.70;;
51985;SDS011;38002;53.296;6.600;2023-10-08T10:17:35;8.45;;;0.98;;
51985;SDS011;38002;53.296;6.600;2023-10-08T10:22:36;6.32;;;1.30;;
51985;SDS011;38002;53.296;6.600;2023-10-08T10:27:37;5.87;;;0.97;;
51985;SDS011;38002;53.296;6.600;2023-10-08T10:32:37;9.00;;;0.93;;
51985;SDS011;38002;53.296;6.600;2023-10-08T10:37:38;8.07;;;0.90;;
51985;SDS011;38002;53.296;6.600;2023-10-08T10:42:46;6.45;;;1.23;;
51985;SDS011;38002;53.296;6.600;2023-10-08T10:47:53;4.57;;;1.23;;
51985;SDS011;38002;53.296;6.600;2023-10-08T10:53:00;4.13;;;0.70;;
51985;SDS011;38002;53.296;6.600;2023-10-08T10:58:11;5.60;;;1.10;;
51985;SDS011;38002;53.296;6.600;2023-10-08T11:03:12;5.75;;;1.25;;
51985;SDS011;38002;53.296;6.600;2023-10-08T11:08:23;5.32;;;1.02;;
51985;SDS011;38002;53.296;6.600;2023-10-08T11:13:24;2.20;;;1.00;;
51985;SDS011;38002;53.296;6.600;2023-10-08T11:18:28;5.75;;;0.80;;
51985;SDS011;38002;53.296;6.600;2023-10-08T11:23:33;5.37;;;1.20;;
51985;SDS011;38002;53.296;6.600;2023-10-08T11:28:38;5.85;;;0.70;;
51985;SDS011;38002;53.296;6.600;2023-10-08T11:33:43;5.80;;;1.17;;
51985;SDS011;38002;53.296;6.600;2023-10-08T11:38:57;6.63;;;0.98;;
51985;SDS011;38002;53.296;6.600;2023-10-08T11:44:08;5.05;;;0.95;;
51985;SDS011;38002;53.296;6.600;2023-10-08T11:49:13;4.18;;;1.02;;
51985;SDS011;38002;53.296;6.600;2023-10-08T11:54:25;2.78;;;0.73;;
51985;SDS011;38002;53.296;6.600;2023-10-08T11:59:26;3.85;;;0.80;;
51985;SDS011;38002;53.296;6.600;2023-10-08T12:04:27;3.30;;;1.10;;
51985;SDS011;38002;53.296;6.600;2023-10-08T12:09:29;5.13;;;0.73;;
51985;SDS011;38002;53.296;6.600;2023-10-08T12:14:30;6.10;;;1.20;;
51985;SDS011;38002;53.296;6.600;2023-10-08T12:19:30;6.10;;;1.87;;
51985;SDS011;38002;53.296;6.600;2023-10-08T12:24:32;2.88;;;1.08;;
51985;SDS011;38002;53.296;6.600;2023-10-08T12:29:33;7.18;;;1.85;;
51985;SDS011;38002;53.296;6.600;2023-10-08T12:39:35;5.87;;;0.97;;
51985;SDS011;38002;53.296;6.600;2023-10-08T12:44:44;6.68;;;0.93;;
51985;SDS011;38002;53.296;6.600;2023-10-08T12:49:47;5.07;;;1.00;;
51985;SDS011;38002;53.296;6.600;2023-10-08T12:54:48;4.10;;;0.97;;
51985;SDS011;38002;53.296;6.600;2023-10-08T12:59:49;4.35;;;1.40;;
51985;SDS011;38002;53.296;6.600;2023-10-08T13:04:51;4.50;;;1.33;;
51985;SDS011;38002;53.296;6.600;2023-10-08T13:09:55;3.10;;;1.02;;
51985;SDS011;38002;53.296;6.600;2023-10-08T13:14:55;4.20;;;1.97;;
51985;SDS011;38002;53.296;6.600;2023-10-08T13:19:56;3.30;;;0.80;;
51985;SDS011;38002;53.296;6.600;2023-10-08T13:24:56;2.77;;;0.87;;
51985;SDS011;38002;53.296;6.600;2023-10-08T13:29:56;2.53;;;1.10;;
51985;SDS011;38002;53.296;6.600;2023-10-08T13:34:57;2.53;;;0.77;;
51985;SDS011;38002;53.296;6.600;2023-10-08T13:44:59;3.00;;;1.23;;
51985;SDS011;38002;53.296;6.600;2023-10-08T13:50:07;5.95;;;0.82;;
51985;SDS011;38002;53.296;6.600;2023-10-08T13:55:11;4.43;;;1.02;;
51985;SDS011;38002;53.296;6.600;2023-10-08T14:00:14;6.32;;;1.13;;
51985;SDS011;38002;53.296;6.600;2023-10-08T14:05:16;6.03;;;1.00;;
51985;SDS011;38002;53.296;6.600;2023-10-08T14:15:29;2.42;;;0.95;;
51985;SDS011;38002;53.296;6.600;2023-10-08T14:20:32;4.32;;;1.13;;
51985;SDS011;38002;53.296;6.600;2023-10-08T14:25:33;4.53;;;1.10;;
51985;SDS011;38002;53.296;6.600;2023-10-08T14:30:42;4.90;;;1.15;;
51985;SDS011;38002;53.296;6.600;2023-10-08T14:35:42;8.57;;;1.60;;
51985;SDS011;38002;53.296;6.600;2023-10-08T14:41:01;3.47;;;0.90;;
51985;SDS011;38002;53.296;6.600;2023-10-08T14:46:20;3.53;;;0.90;;
51985;SDS011;38002;53.296;6.600;2023-10-08T14:51:21;2.93;;;0.87;;
51985;SDS011;38002;53.296;6.600;2023-10-08T14:56:24;6.93;;;1.20;;
51985;SDS011;38002;53.296;6.600;2023-10-08T15:06:26;3.83;;;1.13;;
51985;SDS011;38002;53.296;6.600;2023-10-08T15:11:30;3.70;;;1.25;;
51985;SDS011;38002;53.296;6.600;2023-10-08T15:16:30;5.73;;;0.93;;
51985;SDS011;38002;53.296;6.600;2023-10-08T15:21:31;8.80;;;1.37;;
51985;SDS011;38002;53.296;6.600;2023-10-08T15:26:35;3.92;;;0.95;;
51985;SDS011;38002;53.296;6.600;2023-10-08T15:31:36;1.40;;;0.90;;
51985;SDS011;38002;53.296;6.600;2023-10-08T15:36:36;4.50;;;1.67;;
51985;SDS011;38002;53.296;6.600;2023-10-08T15:46:39;6.93;;;1.50;;
51985;SDS011;38002;53.296;6.600;2023-10-08T15:51:39;2.10;;;1.23;;
51985;SDS011;38002;53.296;6.600;2023-10-08T15:56:40;4.50;;;1.80;;
51985;SDS011;38002;53.296;6.600;2023-10-08T16:01:40;2.97;;;1.10;;
51985;SDS011;38002;53.296;6.600;2023-10-08T16:06:43;4.05;;;1.23;;
51985;SDS011;38002;53.296;6.600;2023-10-08T16:11:44;2.67;;;1.03;;
51985;SDS011;38002;53.296;6.600;2023-10-08T16:16:44;3.20;;;1.20;;
51985;SDS011;38002;53.296;6.600;2023-10-08T16:21:47;6.80;;;1.48;;
51985;SDS011;38002;53.296;6.600;2023-10-08T16:26:47;4.10;;;1.60;;
51985;SDS011;38002;53.296;6.600;2023-10-08T16:31:48;2.60;;;1.33;;
51985;SDS011;38002;53.296;6.600;2023-10-08T16:41:52;6.45;;;1.10;;
51985;SDS011;38002;53.296;6.600;2023-10-08T16:46:53;3.15;;;0.90;;
51985;SDS011;38002;53.296;6.600;2023-10-08T16:51:54;4.87;;;1.30;;
51985;SDS011;38002;53.296;6.600;2023-10-08T16:56:55;4.40;;;1.10;;
51985;SDS011;38002;53.296;6.600;2023-10-08T17:01:55;6.07;;;1.10;;
51985;SDS011;38002;53.296;6.600;2023-10-08T17:06:56;5.03;;;1.50;;
51985;SDS011;38002;53.296;6.600;2023-10-08T17:11:57;2.33;;;1.00;;
51985;SDS011;38002;53.296;6.600;2023-10-08T17:16:58;5.83;;;1.47;;
51985;SDS011;38002;53.296;6.600;2023-10-08T17:22:02;4.57;;;1.02;;
51985;SDS011;38002;53.296;6.600;2023-10-08T17:27:04;5.57;;;1.30;;
51985;SDS011;38002;53.296;6.600;2023-10-08T17:32:06;4.63;;;1.25;;
51985;SDS011;38002;53.296;6.600;2023-10-08T17:37:07;8.40;;;3.10;;
51985;SDS011;38002;53.296;6.600;2023-10-08T17:42:07;3.73;;;1.60;;
51985;SDS011;38002;53.296;6.600;2023-10-08T17:47:09;5.65;;;1.40;;
51985;SDS011;38002;53.296;6.600;2023-10-08T17:52:10;4.87;;;1.50;;
51985;SDS011;38002;53.296;6.600;2023-10-08T17:57:12;6.15;;;1.73;;
51985;SDS011;38002;53.296;6.600;2023-10-08T18:02:15;5.50;;;1.88;;
51985;SDS011;38002;53.296;6.600;2023-10-08T18:07:17;3.10;;;1.33;;
51985;SDS011;38002;53.296;6.600;2023-10-08T18:12:18;2.03;;;1.17;;
51985;SDS011;38002;53.296;6.600;2023-10-08T18:17:18;3.03;;;1.23;;
51985;SDS011;38002;53.296;6.600;2023-10-08T18:22:18;2.43;;;1.13;;
51985;SDS011;38002;53.296;6.600;2023-10-08T18:27:19;6.23;;;1.40;;
51985;SDS011;38002;53.296;6.600;2023-10-08T18:32:20;3.80;;;1.40;;
51985;SDS011;38002;53.296;6.600;2023-10-08T18:37:22;2.95;;;1.40;;
51985;SDS011;38002;53.296;6.600;2023-10-08T18:42:23;4.33;;;1.33;;
51985;SDS011;38002;53.296;6.600;2023-10-08T18:47:27;4.38;;;1.10;;
51985;SDS011;38002;53.296;6.600;2023-10-08T18:52:28;2.73;;;1.20;;
51985;SDS011;38002;53.296;6.600;2023-10-08T18:57:28;3.37;;;1.30;;
51985;SDS011;38002;53.296;6.600;2023-10-08T19:02:29;5.73;;;1.30;;
51985;SDS011;38002;53.296;6.600;2023-10-08T19:07:30;5.53;;;1.30;;
51985;SDS011;38002;53.296;6.600;2023-10-08T19:12:31;3.30;;;1.53;;
51985;SDS011;38002;53.296;6.600;2023-10-08T19:17:36;11.15;;;1.60;;
51985;SDS011;38002;53.296;6.600;2023-10-08T19:22:37;3.73;;;1.37;;
51985;SDS011;38002;53.296;6.600;2023-10-08T19:27:38;4.65;;;1.80;;
51985;SDS011;38002;53.296;6.600;2023-10-08T19:32:42;3.70;;;1.20;;
51985;SDS011;38002;53.296;6.600;2023-10-08T19:37:43;4.90;;;1.40;;
51985;SDS011;38002;53.296;6.600;2023-10-08T19:42:44;3.33;;;1.17;;
51985;SDS011;38002;53.296;6.600;2023-10-08T19:52:46;4.05;;;1.55;;
51985;SDS011;38002;53.296;6.600;2023-10-08T19:57:51;7.32;;;1.83;;
51985;SDS011;38002;53.296;6.600;2023-10-08T20:02:52;5.68;;;1.65;;
51985;SDS011;38002;53.296;6.600;2023-10-08T20:07:53;5.20;;;1.63;;
51985;SDS011;38002;53.296;6.600;2023-10-08T20:12:55;5.87;;;1.60;;
51985;SDS011;38002;53.296;6.600;2023-10-08T20:22:56;5.40;;;1.38;;
51985;SDS011;38002;53.296;6.600;2023-10-08T20:27:57;4.07;;;1.70;;
51985;SDS011;38002;53.296;6.600;2023-10-08T20:32:57;7.53;;;1.83;;
51985;SDS011;38002;53.296;6.600;2023-10-08T20:43:00;6.70;;;1.70;;
51985;SDS011;38002;53.296;6.600;2023-10-08T20:48:01;4.93;;;2.20;;
51985;SDS011;38002;53.296;6.600;2023-10-08T20:53:01;2.67;;;1.63;;
51985;SDS011;38002;53.296;6.600;2023-10-08T20:58:02;6.03;;;2.23;;
51985;SDS011;38002;53.296;6.600;2023-10-08T21:03:04;3.35;;;1.65;;
51985;SDS011;38002;53.296;6.600;2023-10-08T21:08:08;6.32;;;2.45;;
51985;SDS011;38002;53.296;6.600;2023-10-08T21:13:09;8.55;;;2.20;;
51985;SDS011;38002;53.296;6.600;2023-10-08T21:18:12;6.50;;;2.60;;
51985;SDS011;38002;53.296;6.600;2023-10-08T21:23:13;2.67;;;2.47;;
51985;SDS011;38002;53.296;6.600;2023-10-08T21:28:13;4.60;;;2.53;;
51985;SDS011;38002;53.296;6.600;2023-10-08T21:33:13;5.40;;;2.37;;
51985;SDS011;38002;53.296;6.600;2023-10-08T21:38:15;5.22;;;2.47;;
51985;SDS011;38002;53.296;6.600;2023-10-08T21:43:15;5.07;;;2.57;;
51985;SDS011;38002;53.296;6.600;2023-10-08T21:48:17;5.27;;;2.83;;
51985;SDS011;38002;53.296;6.600;2023-10-08T21:53:17;5.50;;;2.57;;
51985;SDS011;38002;53.296;6.600;2023-10-08T21:58:18;3.33;;;2.30;;
51985;SDS011;38002;53.296;6.600;2023-10-08T22:03:18;3.23;;;2.63;;
51985;SDS011;38002;53.296;6.600;2023-10-08T22:08:19;6.27;;;3.33;;
51985;SDS011;38002;53.296;6.600;2023-10-08T22:13:23;3.95;;;2.90;;
51985;SDS011;38002;53.296;6.600;2023-10-08T22:18:23;4.63;;;2.77;;
51985;SDS011;38002;53.296;6.600;2023-10-08T22:23:30;5.90;;;3.30;;
51985;SDS011;38002;53.296;6.600;2023-10-08T22:28:35;4.28;;;2.67;;
51985;SDS011;38002;53.296;6.600;2023-10-08T22:33:36;4.65;;;2.78;;
51985;SDS011;38002;53.296;6.600;2023-10-08T22:38:40;4.15;;;2.17;;
51985;SDS011;38002;53.296;6.600;2023-10-08T22:48:45;11.23;;;3.17;;
51985;SDS011;38002;53.296;6.600;2023-10-08T22:53:50;7.88;;;3.00;;
51985;SDS011;38002;53.296;6.600;2023-10-08T22:58:51;6.93;;;2.30;;
51985;SDS011;38002;53.296;6.600;2023-10-08T23:03:55;3.65;;;2.25;;
51985;SDS011;38002;53.296;6.600;2023-10-08T23:08:56;4.87;;;2.80;;
51985;SDS011;38002;53.296;6.600;2023-10-08T23:13:59;4.20;;;2.58;;
51985;SDS011;38002;53.296;6.600;2023-10-08T23:19:03;2.63;;;1.90;;
51985;SDS011;38002;53.296;6.600;2023-10-08T23:24:04;6.40;;;3.10;;
51985;SDS011;38002;53.296;6.600;2023-10-08T23:29:07;7.05;;;3.15;;
51985;SDS011;38002;53.296;6.600;2023-10-08T23:34:08;7.07;;;2.83;;
51985;SDS011;38002;53.296;6.600;2023-10-08T23:39:13;13.25;;;3.55;;
51985;SDS011;38002;53.296;6.600;2023-10-08T23:44:20;5.78;;;3.22;;
51985;SDS011;38002;53.296;6.600;2023-10-08T23:49:30;5.45;;;2.88;;
51985;SDS011;38002;53.296;6.600;2023-10-08T23:54:31;4.17;;;2.73;;
51985;SDS011;38002;53.296;6.600;2023-10-08T23:59:34;11.40;;;3.20;;
